Back to Top

Language: 

My Weather Underground Personal Weather Station Historical Data with Graphs...

Delerius Weather Station Historical Data
Daily Summary for January 8, 2017 Units:  Metric    English   Both
« Previous Day
Next Day »
Daily Weekly Monthly Yearly Custom
  High: Low: Average:
Temperature: 9.2 °C 4.9 °C 6.7 °C
Dew Point: 8.3 °C 4 °C 5.9 °C
Humidity: 97 % 90 % 95 %
Wind Speed: 11.3 km/h 0 km/h 1.8 km/h
Wind Gust: 14.5 km/h - -
Wind:- - West
Pressure: 1032.1 hPa 1025.6 hPa -
Precipitation: 0 mm    
Historical Graphs
 
 
Tabular Data for January 8, 2017
Time Temperature Dew Point Pressure Wind Wind Speed Wind Gust Humidity Rainfall Rate (Hourly) solar Conditions
00:00 5.3 °C 4.7 °C 1031.4 hPa WNW 3.2 km/h 3.2 km/h 96 % 0 mm 0 W/m2
00:05 5.3 °C 4.7 °C 1031.4 hPa WNW 4.8 km/h 6.4 km/h 96 % 0 mm 0 W/m2
00:15 5.3 °C 4.7 °C 1031.4 hPa WNW 4.8 km/h 6.4 km/h 96 % 0 mm 0 W/m2
00:20 5.2 °C 4.6 °C 1031.4 hPa WNW 3.2 km/h 3.2 km/h 96 % 0 mm 0 W/m2
00:25 5.2 °C 4.6 °C 1031.4 hPa WNW 3.2 km/h 4.8 km/h 96 % 0 mm 0 W/m2
00:30 5.2 °C 4.6 °C 1031.4 hPa WNW 3.2 km/h 3.2 km/h 96 % 0 mm 0 W/m2
00:35 5.2 °C 4.6 °C 1031.4 hPa WNW 3.2 km/h 4.8 km/h 96 % 0 mm 0 W/m2
00:45 5.1 °C 4.5 °C 1031 hPa WNW 4.8 km/h 4.8 km/h 96 % 0 mm 0 W/m2
00:50 5.2 °C 4.6 °C 1031 hPa WNW 6.4 km/h 6.4 km/h 96 % 0 mm 0 W/m2
00:55 5.2 °C 4.8 °C 1031 hPa WNW 6.4 km/h 6.4 km/h 97 % 0 mm 0 W/m2
01:00 5.4 °C 4.9 °C 1031 hPa WNW 4.8 km/h 6.4 km/h 97 % 0 mm 0 W/m2
01:05 5.6 °C 5.1 °C 1031 hPa WNW 4.8 km/h 8 km/h 97 % 0 mm 0 W/m2
01:10 5.7 °C 5.3 °C 1031 hPa WNW 6.4 km/h 6.4 km/h 97 % 0 mm 0 W/m2
01:15 5.8 °C 5.4 °C 1031 hPa WNW 4.8 km/h 8 km/h 97 % 0 mm 0 W/m2
01:25 6.1 °C 5.6 °C 1030.7 hPa WNW 1.6 km/h 8 km/h 97 % 0 mm 0 W/m2
01:30 6.1 °C 5.6 °C 1030.7 hPa WNW 3.2 km/h 8 km/h 97 % 0 mm 0 W/m2
01:35 6.2 °C 5.7 °C 1030.7 hPa WNW 4.8 km/h 11.3 km/h 97 % 0 mm 0 W/m2
01:40 6.3 °C 5.9 °C 1030.7 hPa WNW 8 km/h 9.7 km/h 97 % 0 mm 0 W/m2
01:45 6.6 °C 6.2 °C 1030.7 hPa NW 8 km/h 9.7 km/h 97 % 0 mm 0 W/m2
01:55 6.9 °C 6.5 °C 1030.7 hPa NW 4.8 km/h 8 km/h 97 % 0 mm 0 W/m2
02:00 7.1 °C 6.6 °C 1030.7 hPa NW 3.2 km/h 8 km/h 97 % 0 mm 0 W/m2
02:05 7.2 °C 6.7 °C 1030.7 hPa NW 3.2 km/h 8 km/h 97 % 0 mm 0 W/m2
02:10 7.2 °C 6.8 °C 1030.7 hPa NW 3.2 km/h 8 km/h 97 % 0 mm 0 W/m2
02:15 7.3 °C 6.9 °C 1030.7 hPa NW 4.8 km/h 8 km/h 97 % 0 mm 0 W/m2
02:20 7.4 °C 7 °C 1030.7 hPa NW 6.4 km/h 8 km/h 97 % 0 mm 0 W/m2
02:25 7.5 °C 6.9 °C 1030.7 hPa NW 6.4 km/h 8 km/h 96 % 0 mm 0 W/m2
02:30 7.6 °C 6.9 °C 1030.7 hPa WNW 6.4 km/h 6.4 km/h 96 % 0 mm 0 W/m2
02:40 7.6 °C 7 °C 1030.7 hPa NW 6.4 km/h 6.4 km/h 96 % 0 mm 0 W/m2
02:45 7.7 °C 7.1 °C 1030.7 hPa NW 4.8 km/h 8 km/h 96 % 0 mm 0 W/m2
02:50 7.7 °C 7.1 °C 1030.7 hPa NW 4.8 km/h 4.8 km/h 96 % 0 mm 0 W/m2
02:55 7.7 °C 6.9 °C 1030.7 hPa NW 4.8 km/h 8 km/h 95 % 0 mm 0 W/m2
03:10 7.8 °C 7 °C 1030.7 hPa WNW 6.4 km/h 11.3 km/h 95 % 0 mm 0 W/m2
03:15 7.8 °C 7 °C 1030.7 hPa NW 8 km/h 11.3 km/h 95 % 0 mm 0 W/m2
03:20 7.8 °C 7.1 °C 1030.7 hPa NW 8 km/h 9.7 km/h 95 % 0 mm 0 W/m2
03:25 7.8 °C 7.1 °C 1030.7 hPa WNW 6.4 km/h 9.7 km/h 95 % 0 mm 0 W/m2
03:30 7.8 °C 6.9 °C 1030.7 hPa WNW 6.4 km/h 11.3 km/h 94 % 0 mm 0 W/m2
03:35 7.8 °C 6.9 °C 1030.7 hPa NW 9.7 km/h 11.3 km/h 94 % 0 mm 0 W/m2
03:45 7.9 °C 7 °C 1030.7 hPa WNW 9.7 km/h 11.3 km/h 94 % 0 mm 0 W/m2
03:50 7.9 °C 6.8 °C 1030.7 hPa NW 9.7 km/h 11.3 km/h 93 % 0 mm 0 W/m2
03:55 7.9 °C 6.9 °C 1030.7 hPa NW 11.3 km/h 12.9 km/h 93 % 0 mm 0 W/m2
04:00 8 °C 6.9 °C 1030.7 hPa WNW 9.7 km/h 9.7 km/h 93 % 0 mm 0 W/m2
04:05 8 °C 6.8 °C 1030.7 hPa WNW 8 km/h 9.7 km/h 92 % 0 mm 0 W/m2
04:10 7.9 °C 6.7 °C 1030.7 hPa WNW 6.4 km/h 6.4 km/h 92 % 0 mm 0 W/m2
04:20 7.8 °C 6.6 °C 1030.7 hPa WNW 1.6 km/h 1.6 km/h 92 % 0 mm 0 W/m2
04:25 7.8 °C 6.6 °C 1030.7 hPa Calm   8 km/h 92 % 0 mm 0 W/m2
04:30 7.7 °C 6.5 °C 1030.7 hPa Calm   8 km/h 92 % 0 mm 0 W/m2
04:35 7.6 °C 6.4 °C 1030.7 hPa Calm   8 km/h 92 % 0 mm 0 W/m2
04:40 7.5 °C 6.3 °C 1030.4 hPa Calm   8 km/h 92 % 0 mm 0 W/m2
04:45 7.3 °C 5.9 °C 1030.4 hPa Calm   8 km/h 91 % 0 mm 0 W/m2
04:55 7 °C 5.6 °C 1030.4 hPa Calm   8 km/h 91 % 0 mm 0 W/m2
05:00 6.8 °C 5.4 °C 1030.7 hPa Calm   8 km/h 91 % 0 mm 0 W/m2
05:05 6.6 °C 5.2 °C 1030.7 hPa Calm   8 km/h 91 % 0 mm 0 W/m2
05:10 6.5 °C 5.3 °C 1030.7 hPa Calm   8 km/h 92 % 0 mm 0 W/m2
05:15 6.4 °C 5.2 °C 1030.4 hPa Calm   8 km/h 92 % 0 mm 0 W/m2
05:20 6.3 °C 5.1 °C 1030.4 hPa WNW 3.2 km/h 8 km/h 92 % 0 mm 0 W/m2
05:30 6.1 °C 4.8 °C 1030.7 hPa WNW 3.2 km/h 3.2 km/h 92 % 0 mm 0 W/m2
05:35 5.9 °C 4.7 °C 1030.7 hPa WNW 1.6 km/h 8 km/h 92 % 0 mm 0 W/m2
05:40 5.7 °C 4.5 °C 1030.7 hPa Calm   8 km/h 92 % 0 mm 0 W/m2
05:45 5.6 °C 4.3 °C 1030.7 hPa Calm   8 km/h 92 % 0 mm 0 W/m2
05:50 5.3 °C 4.1 °C 1030.7 hPa Calm   8 km/h 92 % 0 mm 0 W/m2
05:55 5.2 °C 4 °C 1030.7 hPa Calm   8 km/h 92 % 0 mm 0 W/m2
06:00 5.1 °C 4 °C 1030.7 hPa Calm   8 km/h 93 % 0 mm 0 W/m2
06:10 5.1 °C 4.2 °C 1030.7 hPa Calm   8 km/h 94 % 0 mm 0 W/m2
06:15 5.3 °C 4.6 °C 1031 hPa Calm   8 km/h 95 % 0 mm 0 W/m2
06:20 5.5 °C 4.8 °C 1031 hPa WNW 1.6 km/h 8 km/h 95 % 0 mm 0 W/m2
06:25 5.6 °C 4.9 °C 1031 hPa WNW 3.2 km/h 8 km/h 95 % 0 mm 0 W/m2
06:30 5.6 °C 4.7 °C 1031 hPa WNW 1.6 km/h 1.6 km/h 94 % 0 mm 0 W/m2
06:35 5.4 °C 4.6 °C 1031 hPa Calm   8 km/h 94 % 0 mm 0 W/m2
06:45 5.3 °C 4.4 °C 1031 hPa Calm   8 km/h 94 % 0 mm 0 W/m2
06:50 5.2 °C 4.3 °C 1031 hPa Calm   8 km/h 94 % 0 mm 0 W/m2
06:55 5.2 °C 4.3 °C 1031 hPa Calm   8 km/h 94 % 0 mm 0 W/m2
07:00 5.2 °C 4.5 °C 1031.4 hPa Calm   8 km/h 95 % 0 mm 0 W/m2
07:05 5.3 °C 4.6 °C 1031 hPa Calm   8 km/h 95 % 0 mm 0 W/m2
07:10 5.4 °C 4.7 °C 1031.4 hPa NE 3.2 km/h 3.2 km/h 95 % 0 mm 0 W/m2
07:15 5.6 °C 4.8 °C 1031.4 hPa NE 4.8 km/h 4.8 km/h 95 % 0 mm 0 W/m2
07:20 5.8 °C 5.1 °C 1031.4 hPa NE 3.2 km/h 3.2 km/h 95 % 0 mm 0 W/m2
07:30 5.8 °C 5.1 °C 1031.4 hPa Calm   8 km/h 95 % 0 mm 0 W/m2
07:35 5.8 °C 4.9 °C 1031.4 hPa Calm   8 km/h 94 % 0 mm 0 W/m2
07:40 5.6 °C 4.7 °C 1031.4 hPa Calm   8 km/h 94 % 0 mm 0 W/m2
07:45 5.5 °C 4.6 °C 1031.4 hPa Calm   8 km/h 94 % 0 mm 0 W/m2
07:50 5.4 °C 4.5 °C 1031.4 hPa Calm   8 km/h 94 % 0 mm 0 W/m2
07:55 5.3 °C 4.4 °C 1031.4 hPa Calm   8 km/h 94 % 0 mm 0 W/m2
08:00 5.3 °C 4.6 °C 1031.4 hPa Calm   8 km/h 95 % 0 mm 0 W/m2
08:05 5.2 °C 4.5 °C 1031.4 hPa Calm   8 km/h 95 % 0 mm 0 W/m2
08:10 5.1 °C 4.2 °C 1031.4 hPa Calm   8 km/h 94 % 0 mm 0 W/m2
08:15 4.9 °C 4.1 °C 1031.4 hPa Calm   8 km/h 94 % 0 mm 0 W/m2
08:25 4.9 °C 4.2 °C 1031.4 hPa Calm   8 km/h 95 % 0 mm 5 W/m2
08:30 5 °C 4.3 °C 1031.4 hPa Calm   8 km/h 95 % 0 mm 7 W/m2
08:35 5.1 °C 4.4 °C 1031.7 hPa Calm   8 km/h 95 % 0 mm 9 W/m2
08:40 5 °C 4.3 °C 1031.7 hPa Calm   8 km/h 95 % 0 mm 11 W/m2
08:45 4.9 °C 4.2 °C 1031.7 hPa Calm   8 km/h 95 % 0 mm 9 W/m2
08:55 5 °C 4.3 °C 1031.7 hPa NE 1.6 km/h 8 km/h 95 % 0 mm 18 W/m2
09:00 5.1 °C 4.4 °C 1031.7 hPa Calm   8 km/h 96 % 0 mm 21 W/m2
09:05 5.1 °C 4.5 °C 1031.7 hPa Calm   8 km/h 96 % 0 mm 19 W/m2
09:10 5.3 °C 4.7 °C 1031.7 hPa Calm   8 km/h 96 % 0 mm 19 W/m2
09:20 5.6 °C 5.2 °C 1031.7 hPa Calm   8 km/h 97 % 0 mm 16 W/m2
09:25 5.8 °C 5.4 °C 1031.7 hPa Calm   8 km/h 97 % 0 mm 18 W/m2
09:30 5.9 °C 5.5 °C 1031.7 hPa Calm   8 km/h 97 % 0 mm 18 W/m2
09:35 6.1 °C 5.6 °C 1031.7 hPa Calm   8 km/h 97 % 0 mm 21 W/m2
09:40 6.1 °C 5.6 °C 1031.7 hPa Calm   8 km/h 97 % 0 mm 23 W/m2
09:45 6.2 °C 5.7 °C 1031.7 hPa Calm   8 km/h 97 % 0 mm 28 W/m2
09:55 6.1 °C 5.4 °C 1031.7 hPa Calm   8 km/h 96 % 0 mm 33 W/m2
10:00 5.9 °C 5.3 °C 1032.1 hPa Calm   8 km/h 96 % 0 mm 32 W/m2
10:05 5.8 °C 5.2 °C 1032.1 hPa Calm   8 km/h 96 % 0 mm 30 W/m2
10:10 5.9 °C 5.3 °C 1032.1 hPa Calm   8 km/h 96 % 0 mm 33 W/m2
10:15 5.9 °C 5.3 °C 1032.1 hPa Calm   8 km/h 96 % 0 mm 39 W/m2
10:20 5.8 °C 5.2 °C 1031.7 hPa Calm   8 km/h 96 % 0 mm 40 W/m2
10:30 5.9 °C 5.3 °C 1032.1 hPa Calm   8 km/h 96 % 0 mm 40 W/m2
10:35 6 °C 5.4 °C 1032.1 hPa Calm   8 km/h 96 % 0 mm 39 W/m2
10:40 6.1 °C 5.7 °C 1032.1 hPa Calm   8 km/h 97 % 0 mm 37 W/m2
10:45 6.2 °C 5.7 °C 1032.1 hPa Calm   8 km/h 97 % 0 mm 42 W/m2
10:50 6.2 °C 5.6 °C 1032.1 hPa Calm   8 km/h 96 % 0 mm 44 W/m2
10:55 6.2 °C 5.6 °C 1032.1 hPa Calm   8 km/h 96 % 0 mm 42 W/m2
11:00 6.4 °C 5.9 °C 1032.1 hPa Calm   8 km/h 97 % 0 mm 44 W/m2
11:05 6.5 °C 6.1 °C 1032.1 hPa Calm   8 km/h 97 % 0 mm 44 W/m2
11:10 6.7 °C 6.2 °C 1032.1 hPa Calm   8 km/h 97 % 0 mm 47 W/m2
11:20 6.7 °C 6.1 °C 1031.7 hPa Calm   8 km/h 96 % 0 mm 58 W/m2
11:25 6.7 °C 6.3 °C 1031.7 hPa Calm   8 km/h 97 % 0 mm 62 W/m2
11:30 6.8 °C 6.3 °C 1031.7 hPa Calm   8 km/h 97 % 0 mm 60 W/m2
11:35 6.9 °C 6.4 °C 1031.7 hPa Calm   8 km/h 97 % 0 mm 62 W/m2
11:40 7.1 °C 6.6 °C 1031.7 hPa Calm   8 km/h 97 % 0 mm 65 W/m2
11:45 7.2 °C 6.8 °C 1031.7 hPa Calm   8 km/h 97 % 0 mm 56 W/m2
11:55 7.4 °C 6.9 °C 1031.4 hPa Calm   8 km/h 97 % 0 mm 69 W/m2
12:00 7.5 °C 7.1 °C 1031.4 hPa Calm   8 km/h 97 % 0 mm 69 W/m2
12:10 7.7 °C 7.2 °C 1031 hPa Calm   8 km/h 97 % 0 mm 72 W/m2
12:15 7.7 °C 7.1 °C 1031 hPa Calm   8 km/h 96 % 0 mm 72 W/m2
12:20 7.8 °C 7.3 °C 1031 hPa Calm   8 km/h 97 % 0 mm 72 W/m2
12:25 7.9 °C 7.4 °C 1031 hPa Calm   8 km/h 97 % 0 mm 84 W/m2
12:30 8 °C 7.6 °C 1031 hPa Calm   8 km/h 97 % 0 mm 81 W/m2
12:40 8.3 °C 7.9 °C 1030.7 hPa Calm   8 km/h 97 % 0 mm 69 W/m2
12:45 8.4 °C 7.9 °C 1030.7 hPa Calm   8 km/h 97 % 0 mm 65 W/m2
12:50 8.4 °C 7.8 °C 1030.7 hPa Calm   8 km/h 96 % 0 mm 62 W/m2
12:55 8.5 °C 7.9 °C 1030.7 hPa Calm   8 km/h 96 % 0 mm 53 W/m2
13:00 8.6 °C 7.9 °C 1030.7 hPa Calm   8 km/h 96 % 0 mm 49 W/m2
13:05 8.6 °C 8 °C 1030.7 hPa West 1.6 km/h 8 km/h 96 % 0 mm 39 W/m2
13:10 8.7 °C 8.1 °C 1030.7 hPa West 3.2 km/h 8 km/h 96 % 0 mm 60 W/m2
14:45 9.1 °C 8.2 °C 1030.4 hPa Calm   8 km/h 94 % 0 mm 62 W/m2
14:50 9.1 °C 8.2 °C 1030.4 hPa Calm   8 km/h 94 % 0 mm 65 W/m2
14:55 9.2 °C 8.3 °C 1030.4 hPa Calm   8 km/h 94 % 0 mm 65 W/m2
15:00 9.2 °C 8.3 °C 1030 hPa WSW 1.6 km/h 8 km/h 94 % 0 mm 54 W/m2
15:05 9.2 °C 8.3 °C 1030 hPa WSW 3.2 km/h 8 km/h 94 % 0 mm 56 W/m2
15:10 9.1 °C 8 °C 1030 hPa West 4.8 km/h 8 km/h 93 % 0 mm 42 W/m2
15:20 8.9 °C 7.6 °C 1030 hPa West 9.7 km/h 9.7 km/h 91 % 0 mm 30 W/m2
15:25 8.9 °C 7.5 °C 1030 hPa WSW 9.7 km/h 9.7 km/h 91 % 0 mm 33 W/m2
15:30 8.9 °C 7.5 °C 1030 hPa WSW 8 km/h 8 km/h 91 % 0 mm 25 W/m2
15:35 8.9 °C 7.3 °C 1030 hPa WSW 6.4 km/h 8 km/h 90 % 0 mm 19 W/m2
15:40 8.9 °C 7.3 °C 1030 hPa WSW 8 km/h 8 km/h 90 % 0 mm 14 W/m2
15:45 8.8 °C 7.3 °C 1030 hPa WSW 6.4 km/h 8 km/h 90 % 0 mm 12 W/m2
15:55 8.7 °C 7.3 °C 1030 hPa West 6.4 km/h 8 km/h 91 % 0 mm 9 W/m2
16:00 8.7 °C 7.3 °C 1030 hPa West 6.4 km/h 14.5 km/h 91 % 0 mm 9 W/m2
16:05 8.7 °C 7.3 °C 1030 hPa West 8 km/h 14.5 km/h 91 % 0 mm 5 W/m2
16:10 8.6 °C 7.2 °C 1030 hPa WSW 8 km/h 8 km/h 91 % 0 mm 0 W/m2
16:15 8.6 °C 7.2 °C 1029.7 hPa WSW 8 km/h 9.7 km/h 91 % 0 mm 0 W/m2
16:20 8.6 °C 7.2 °C 1030 hPa WSW 6.4 km/h 8 km/h 91 % 0 mm 0 W/m2
16:30 8.6 °C 7.2 °C 1029.7 hPa WSW 4.8 km/h 4.8 km/h 91 % 0 mm 0 W/m2
16:35 8.5 °C 7.1 °C 1029.7 hPa WSW 3.2 km/h 8 km/h 91 % 0 mm 0 W/m2
16:40 8.4 °C 7.1 °C 1029.7 hPa WSW 3.2 km/h 8 km/h 91 % 0 mm 0 W/m2
16:45 8.4 °C 7 °C 1029.7 hPa WSW 4.8 km/h 8 km/h 91 % 0 mm 0 W/m2
16:55 8.3 °C 6.9 °C 1029.7 hPa WSW 3.2 km/h 8 km/h 91 % 0 mm 0 W/m2
17:00 8.2 °C 6.8 °C 1029.7 hPa Calm   8 km/h 91 % 0 mm 0 W/m2
17:05 8.2 °C 6.8 °C 1029.7 hPa Calm   8 km/h 91 % 0 mm 0 W/m2
17:10 8.1 °C 6.7 °C 1029.7 hPa Calm   8 km/h 91 % 0 mm 0 W/m2
17:15 8 °C 6.6 °C 1029.7 hPa Calm   8 km/h 91 % 0 mm 0 W/m2
17:20 7.9 °C 6.5 °C 1029.7 hPa Calm   8 km/h 91 % 0 mm 0 W/m2
17:30 7.7 °C 6.5 °C 1029.7 hPa Calm   8 km/h 92 % 0 mm 0 W/m2
17:35 7.7 °C 6.4 °C 1029.7 hPa Calm   8 km/h 92 % 0 mm 0 W/m2
17:40 7.6 °C 6.3 °C 1029.7 hPa Calm   8 km/h 92 % 0 mm 0 W/m2
17:45 7.5 °C 6.3 °C 1029.7 hPa Calm   8 km/h 92 % 0 mm 0 W/m2
17:55 7.4 °C 6.4 °C 1029.3 hPa Calm   8 km/h 93 % 0 mm 0 W/m2
18:05 7.4 °C 6.4 °C 1029.3 hPa Calm   8 km/h 93 % 0 mm 0 W/m2
18:10 7.4 °C 6.4 °C 1029.3 hPa Calm   8 km/h 93 % 0 mm 0 W/m2
18:15 7.4 °C 6.4 °C 1029 hPa Calm   8 km/h 93 % 0 mm 0 W/m2
18:20 7.4 °C 6.6 °C 1029 hPa Calm   8 km/h 94 % 0 mm 0 W/m2
18:25 7.4 °C 6.6 °C 1029 hPa Calm   8 km/h 94 % 0 mm 0 W/m2
18:30 7.5 °C 6.6 °C 1029 hPa WSW 1.6 km/h 8 km/h 94 % 0 mm 0 W/m2
18:40 7.5 °C 6.6 °C 1029 hPa Calm   8 km/h 94 % 0 mm 0 W/m2
18:45 7.5 °C 6.6 °C 1029 hPa Calm   8 km/h 94 % 0 mm 0 W/m2
18:50 7.5 °C 6.6 °C 1029 hPa Calm   8 km/h 94 % 0 mm 0 W/m2
18:55 7.4 °C 6.6 °C 1029 hPa Calm   8 km/h 94 % 0 mm 0 W/m2
19:00 7.4 °C 6.5 °C 1029 hPa Calm   8 km/h 94 % 0 mm 0 W/m2
19:05 7.3 °C 6.3 °C 1029 hPa Calm   8 km/h 93 % 0 mm 0 W/m2
19:15 7.2 °C 6.1 °C 1028.7 hPa Calm   8 km/h 93 % 0 mm 0 W/m2
19:20 7.1 °C 6.2 °C 1028.7 hPa WSW 1.6 km/h 8 km/h 94 % 0 mm 0 W/m2
19:25 7.1 °C 6.2 °C 1028.7 hPa WSW 1.6 km/h 8 km/h 94 % 0 mm 0 W/m2
19:30 7.1 °C 6.2 °C 1028.7 hPa Calm   8 km/h 94 % 0 mm 0 W/m2
19:40 7.1 °C 6.2 °C 1028.7 hPa Calm   8 km/h 94 % 0 mm 0 W/m2
19:45 7 °C 6.1 °C 1028.7 hPa Calm   8 km/h 94 % 0 mm 0 W/m2
19:50 6.9 °C 6 °C 1028.7 hPa Calm   8 km/h 94 % 0 mm 0 W/m2
19:55 6.7 °C 5.6 °C 1028.7 hPa Calm   8 km/h 93 % 0 mm 0 W/m2
20:00 6.5 °C 5.4 °C 1028.7 hPa Calm   8 km/h 93 % 0 mm 0 W/m2
20:05 6.3 °C 5.3 °C 1028.3 hPa Calm   8 km/h 93 % 0 mm 0 W/m2
20:15 6.1 °C 5.2 °C 1028.3 hPa Calm   8 km/h 94 % 0 mm 0 W/m2
20:20 5.9 °C 5.1 °C 1028.3 hPa Calm   8 km/h 94 % 0 mm 0 W/m2
20:25 5.9 °C 5 °C 1028.3 hPa Calm   8 km/h 94 % 0 mm 0 W/m2
20:30 5.9 °C 5.2 °C 1028.3 hPa Calm   8 km/h 95 % 0 mm 0 W/m2
20:35 5.9 °C 5.2 °C 1028.3 hPa Calm   8 km/h 95 % 0 mm 0 W/m2
20:40 6 °C 5.3 °C 1028.3 hPa WSW 1.6 km/h 8 km/h 95 % 0 mm 0 W/m2
20:50 6 °C 5.3 °C 1028.3 hPa Calm   8 km/h 95 % 0 mm 0 W/m2
21:00 6 °C 5.3 °C 1028 hPa Calm   8 km/h 95 % 0 mm 0 W/m2
21:05 6 °C 5.3 °C 1028 hPa Calm   8 km/h 95 % 0 mm 0 W/m2
21:10 6 °C 5.3 °C 1028 hPa Calm   8 km/h 95 % 0 mm 0 W/m2
21:20 5.9 °C 5.2 °C 1028 hPa Calm   8 km/h 95 % 0 mm 0 W/m2
21:25 5.9 °C 5.2 °C 1028 hPa Calm   8 km/h 95 % 0 mm 0 W/m2
21:30 5.9 °C 5.3 °C 1028 hPa Calm   8 km/h 96 % 0 mm 0 W/m2
21:35 5.9 °C 5.3 °C 1028 hPa Calm   8 km/h 96 % 0 mm 0 W/m2
21:40 5.9 °C 5.3 °C 1028 hPa Calm   8 km/h 96 % 0 mm 0 W/m2
21:45 6 °C 5.4 °C 1028 hPa Calm   8 km/h 96 % 0 mm 0 W/m2
21:55 6 °C 5.4 °C 1027.7 hPa Calm   8 km/h 96 % 0 mm 0 W/m2
22:00 5.8 °C 5.2 °C 1027.7 hPa Calm   8 km/h 96 % 0 mm 0 W/m2
22:05 5.8 °C 5.1 °C 1027.7 hPa Calm   8 km/h 95 % 0 mm 0 W/m2
22:10 5.7 °C 5.1 °C 1027.3 hPa Calm   8 km/h 96 % 0 mm 0 W/m2
22:15 5.7 °C 5.1 °C 1027.3 hPa Calm   8 km/h 96 % 0 mm 0 W/m2
22:20 5.9 °C 5.3 °C 1027.3 hPa Calm   8 km/h 96 % 0 mm 0 W/m2
22:30 6.3 °C 5.7 °C 1027 hPa Calm   8 km/h 96 % 0 mm 0 W/m2
22:35 6.3 °C 5.7 °C 1027 hPa Calm   8 km/h 96 % 0 mm 0 W/m2
22:40 6.5 °C 6.1 °C 1026.6 hPa Calm   8 km/h 97 % 0 mm 0 W/m2
22:45 6.6 °C 5.9 °C 1026.6 hPa Calm   8 km/h 96 % 0 mm 0 W/m2
22:50 6.6 °C 5.9 °C 1026.6 hPa Calm   8 km/h 96 % 0 mm 0 W/m2
22:55 6.6 °C 5.9 °C 1026.6 hPa Calm   8 km/h 96 % 0 mm 0 W/m2
23:05 6.6 °C 5.9 °C 1026.3 hPa Calm   8 km/h 96 % 0 mm 0 W/m2
23:10 6.6 °C 6 °C 1026.3 hPa Calm   8 km/h 96 % 0 mm 0 W/m2
23:15 6.6 °C 6 °C 1026.3 hPa Calm   8 km/h 96 % 0 mm 0 W/m2
23:20 6.6 °C 6 °C 1026.3 hPa Calm   8 km/h 96 % 0 mm 0 W/m2
23:25 6.6 °C 6 °C 1026.3 hPa Calm   8 km/h 96 % 0 mm 0 W/m2
23:30 6.6 °C 5.9 °C 1026 hPa Calm   8 km/h 96 % 0 mm 0 W/m2
23:40 6.3 °C 5.6 °C 1025.6 hPa Calm   8 km/h 95 % 0 mm 0 W/m2
23:45 6.2 °C 5.4 °C 1025.6 hPa Calm   8 km/h 95 % 0 mm 0 W/m2
23:50 6.2 °C 5.6 °C 1025.6 hPa Calm   8 km/h 96 % 0 mm 0 W/m2
23:55 6.2 °C 5.6 °C 1025.6 hPa WSW 1.6 km/h 8 km/h 96 % 0 mm 0 W/m2
Delerius-Weather
Compliments of Weather Underground - 2 mb

Data updates at regular intervals.